createdAt,value
2023-03-19T00:01:23.134Z,21.90
2023-03-19T00:03:52.692Z,19.30
2023-03-19T00:06:21.431Z,22.50
2023-03-19T00:08:49.560Z,17.50
2023-03-19T00:11:18.656Z,22.20
2023-03-19T00:13:47.580Z,22.60
2023-03-19T00:16:16.947Z,21.30
2023-03-19T00:18:45.828Z,24.80
2023-03-19T00:21:14.156Z,18.40
2023-03-19T00:23:42.606Z,19.40
2023-03-19T00:26:12.046Z,30.80
2023-03-19T00:28:41.627Z,38.00
2023-03-19T00:31:12.604Z,53.60
2023-03-19T00:33:41.036Z,60.60
2023-03-19T00:36:09.667Z,63.50
2023-03-19T00:38:39.156Z,83.00
2023-03-19T00:41:09.723Z,99.40
2023-03-19T00:43:38.889Z,80.00
2023-03-19T00:46:07.726Z,77.10
2023-03-19T00:48:36.756Z,76.30
2023-03-19T00:51:07.082Z,70.40
2023-03-19T00:53:42.330Z,59.30
2023-03-19T00:56:12.135Z,64.40
2023-03-19T00:58:42.451Z,70.50
2023-03-19T01:01:13.131Z,58.00
2023-03-19T01:03:42.491Z,73.40
2023-03-19T01:06:11.592Z,63.40
2023-03-19T01:08:41.657Z,65.30
2023-03-19T01:11:14.752Z,64.30
2023-03-19T01:13:45.355Z,61.40
2023-03-19T01:16:18.620Z,66.40
2023-03-19T01:18:50.683Z,60.50
2023-03-19T01:21:22.687Z,64.10
2023-03-19T01:23:54.753Z,67.30
2023-03-19T01:26:27.822Z,57.70
2023-03-19T01:29:04.692Z,61.70
2023-03-19T01:31:36.583Z,62.20
2023-03-19T01:34:23.129Z,57.00
2023-03-19T01:36:57.754Z,53.70
2023-03-19T01:39:33.693Z,61.80
2023-03-19T01:42:08.505Z,48.50
2023-03-19T01:45:04.876Z,64.80
2023-03-19T01:48:05.780Z,59.60
2023-03-19T01:50:58.357Z,59.70
2023-03-19T01:53:49.716Z,50.10
2023-03-19T01:56:34.747Z,48.10
2023-03-19T01:59:24.736Z,44.50
2023-03-19T02:02:31.352Z,41.60
2023-03-19T02:05:15.736Z,46.60
2023-03-19T02:07:55.795Z,52.40
2023-03-19T02:10:26.864Z,41.60
2023-03-19T02:21:11.302Z,47.10
2023-03-19T02:24:13.497Z,43.20
2023-03-19T02:26:51.762Z,44.80
2023-03-19T02:29:20.680Z,52.60
2023-03-19T02:31:49.708Z,49.30
2023-03-19T02:34:21.404Z,39.00
2023-03-19T02:36:52.387Z,45.70
2023-03-19T02:39:28.186Z,47.70
2023-03-19T02:41:59.304Z,42.90
2023-03-19T02:44:28.351Z,47.50
2023-03-19T02:47:02.794Z,43.70
2023-03-19T02:49:33.143Z,52.60
2023-03-19T02:52:02.044Z,51.60
2023-03-19T02:54:30.264Z,48.20
2023-03-19T02:57:00.581Z,46.70
2023-03-19T02:59:31.098Z,43.70
2023-03-19T03:01:59.970Z,48.50
2023-03-19T03:04:29.378Z,52.30
2023-03-19T03:06:59.138Z,55.90
2023-03-19T03:09:27.429Z,50.60
2023-03-19T03:11:55.580Z,49.60
2023-03-19T03:14:24.873Z,48.40
2023-03-19T03:16:54.089Z,46.10
2023-03-19T03:19:23.560Z,45.00
2023-03-19T03:21:52.134Z,42.00
2023-03-19T03:24:22.156Z,42.20
2023-03-19T03:26:50.622Z,45.10
2023-03-19T03:29:18.704Z,42.40
2023-03-19T03:31:47.073Z,41.30
2023-03-19T03:34:17.710Z,45.90
2023-03-19T03:36:49.637Z,46.00
2023-03-19T03:39:19.230Z,37.30
2023-03-19T03:41:47.528Z,34.20
2023-03-19T03:44:17.587Z,29.90
2023-03-19T03:46:48.220Z,29.50
2023-03-19T03:49:17.088Z,36.70
2023-03-19T03:51:46.423Z,29.70
2023-03-19T03:54:14.541Z,33.10
2023-03-19T03:56:42.939Z,30.00
2023-03-19T03:59:13.630Z,32.00
2023-03-19T04:01:44.140Z,30.60
2023-03-19T04:04:12.911Z,29.30
2023-03-19T04:06:42.621Z,34.10
2023-03-19T04:09:24.452Z,30.80
2023-03-19T04:11:53.856Z,31.70
2023-03-19T04:14:25.025Z,37.00
2023-03-19T04:16:53.892Z,30.00
2023-03-19T04:19:22.337Z,37.60
2023-03-19T04:21:53.634Z,33.10
2023-03-19T04:24:22.773Z,34.30
2023-03-19T04:26:52.551Z,30.00
2023-03-19T04:29:21.458Z,37.20
2023-03-19T04:31:51.176Z,32.80
2023-03-19T04:34:19.925Z,42.10
2023-03-19T04:36:50.116Z,41.70
2023-03-19T04:39:18.304Z,34.70
2023-03-19T04:41:46.401Z,36.80
2023-03-19T04:44:26.371Z,32.10
2023-03-19T04:46:54.989Z,42.30
2023-03-19T04:49:24.512Z,34.60
2023-03-19T04:51:53.194Z,30.20
2023-03-19T04:54:22.807Z,40.00
2023-03-19T04:56:52.250Z,35.50
2023-03-19T04:59:26.213Z,31.40
2023-03-19T05:01:55.110Z,29.20
2023-03-19T05:04:25.163Z,26.20
2023-03-19T05:06:54.304Z,25.60
2023-03-19T05:09:22.784Z,28.70
2023-03-19T05:11:53.254Z,28.50
2023-03-19T05:14:24.785Z,28.00
2023-03-19T05:17:16.637Z,31.10
2023-03-19T05:19:53.149Z,30.50
2023-03-19T05:22:21.338Z,37.00
2023-03-19T05:24:49.822Z,35.20
2023-03-19T05:27:19.753Z,27.80
2023-03-19T05:29:54.022Z,28.80
2023-03-19T05:32:38.419Z,30.20
2023-03-19T05:35:07.085Z,36.10
2023-03-19T05:37:35.544Z,43.40
2023-03-19T05:40:06.679Z,48.90
2023-03-19T05:42:39.396Z,48.50
2023-03-19T05:45:09.180Z,78.40
2023-03-19T05:47:50.427Z,56.80
2023-03-19T05:50:19.505Z,57.20
2023-03-19T05:53:11.685Z,58.10
2023-03-19T05:55:41.401Z,54.70
2023-03-19T05:58:20.726Z,46.50
2023-03-19T06:00:49.432Z,50.00
2023-03-19T06:03:18.312Z,54.30
2023-03-19T06:05:50.728Z,54.70
2023-03-19T06:08:26.261Z,55.40
2023-03-19T06:11:29.958Z,50.10
2023-03-19T06:14:16.714Z,52.20
2023-03-19T06:16:52.631Z,42.20
2023-03-19T06:19:23.722Z,42.70
2023-03-19T06:21:53.250Z,39.60
2023-03-19T06:24:21.459Z,44.60
2023-03-19T06:26:50.362Z,42.30
2023-03-19T06:29:19.287Z,38.80
2023-03-19T06:31:49.220Z,37.50
2023-03-19T06:34:25.519Z,38.50
2023-03-19T06:36:53.973Z,32.00
2023-03-19T06:39:24.741Z,34.20
2023-03-19T06:41:53.059Z,33.00
2023-03-19T06:44:25.144Z,37.90
2023-03-19T06:46:54.601Z,36.60
2023-03-19T06:49:23.112Z,32.90
